createdAt,value
2023-05-21T00:00:42.725Z,21.90
2023-05-21T00:05:47.370Z,21.90
2023-05-21T00:10:48.911Z,21.91
2023-05-21T00:15:50.355Z,21.90
2023-05-21T00:20:52.028Z,21.91
2023-05-21T00:25:53.482Z,21.90
2023-05-21T00:30:54.963Z,21.92
2023-05-21T00:35:57.275Z,21.88
2023-05-21T00:41:04.870Z,21.91
2023-05-21T00:46:11.895Z,21.89
2023-05-21T00:51:14.147Z,21.89
2023-05-21T00:56:15.570Z,21.89
2023-05-21T01:01:18.260Z,21.89
2023-05-21T01:06:20.748Z,21.90
2023-05-21T01:11:23.834Z,21.87
2023-05-21T01:16:25.291Z,21.88
2023-05-21T01:21:28.357Z,21.86
2023-05-21T01:26:30.300Z,21.85
2023-05-21T01:31:37.578Z,21.85
2023-05-21T01:36:42.580Z,21.86
2023-05-21T01:41:45.011Z,21.83
2023-05-21T01:46:46.544Z,21.84
2023-05-21T01:51:48.262Z,21.85
2023-05-21T01:56:50.331Z,21.83
2023-05-21T02:01:51.840Z,21.83
2023-05-21T02:06:54.764Z,21.80
2023-05-21T02:11:56.511Z,21.79
2023-05-21T02:16:58.047Z,21.80
2023-05-21T02:21:59.460Z,21.82
2023-05-21T02:27:00.872Z,21.80
2023-05-21T02:32:02.590Z,21.81
2023-05-21T02:37:04.031Z,21.80
2023-05-21T02:42:05.503Z,21.82
2023-05-21T02:47:08.330Z,21.83
2023-05-21T02:52:09.784Z,21.83
2023-05-21T02:57:11.278Z,21.84
2023-05-21T03:02:12.796Z,21.85
2023-05-21T03:07:15.011Z,21.85
2023-05-21T03:12:16.440Z,21.81
2023-05-21T03:17:17.965Z,21.82
2023-05-21T03:22:19.921Z,21.82
2023-05-21T03:27:21.448Z,21.84
2023-05-21T03:32:22.983Z,21.84
2023-05-21T03:37:24.508Z,21.83
2023-05-21T03:42:26.026Z,21.83
2023-05-21T03:47:27.454Z,21.80
2023-05-21T03:52:28.909Z,21.82
2023-05-21T03:57:30.348Z,21.83
2023-05-21T04:02:32.180Z,21.81
2023-05-21T04:07:33.632Z,21.82
2023-05-21T04:12:35.194Z,21.83
2023-05-21T04:17:36.671Z,21.81
2023-05-21T04:22:38.115Z,21.83
2023-05-21T04:27:39.579Z,21.82
2023-05-21T04:32:41.085Z,21.82
2023-05-21T04:37:42.665Z,21.84
2023-05-21T04:42:46.470Z,21.85
2023-05-21T04:47:47.994Z,21.85
2023-05-21T04:52:49.472Z,21.85
2023-05-21T04:57:51.046Z,21.84
2023-05-21T05:02:52.547Z,21.86
2023-05-21T05:07:54.018Z,21.87
2023-05-21T05:12:55.453Z,21.90
2023-05-21T05:17:56.943Z,21.90
2023-05-21T05:22:58.434Z,21.87
2023-05-21T05:27:59.863Z,21.90
2023-05-21T05:33:01.488Z,21.90
2023-05-21T05:38:02.943Z,21.90
2023-05-21T05:43:04.433Z,21.91
2023-05-21T05:48:06.271Z,21.91
2023-05-21T05:53:08.194Z,21.91
2023-05-21T05:58:09.613Z,21.92
2023-05-21T06:03:12.112Z,21.93
2023-05-21T06:08:13.654Z,21.92
2023-05-21T06:13:15.071Z,21.91
2023-05-21T06:18:16.502Z,21.93
2023-05-21T06:23:17.970Z,21.93
2023-05-21T06:28:19.402Z,21.92
2023-05-21T06:33:21.429Z,21.93
2023-05-21T06:38:22.962Z,21.93
2023-05-21T06:43:24.555Z,21.92
2023-05-21T06:48:26.224Z,21.92
2023-05-21T06:53:27.737Z,21.91
2023-05-21T06:58:31.213Z,21.90
2023-05-21T07:03:32.772Z,21.91
2023-05-21T07:08:34.319Z,21.91
2023-05-21T07:13:36.195Z,21.92
2023-05-21T07:18:37.670Z,21.92
2023-05-21T07:23:39.096Z,21.91
2023-05-21T07:28:40.521Z,21.93
2023-05-21T07:33:41.979Z,21.94
2023-05-21T07:38:44.076Z,21.97
2023-05-21T07:43:45.548Z,21.98
2023-05-21T07:48:48.229Z,22.01
2023-05-21T07:53:49.677Z,22.00
2023-05-21T07:58:51.123Z,22.04
2023-05-21T08:03:52.828Z,22.07
2023-05-21T08:08:54.354Z,22.09
2023-05-21T08:13:56.334Z,22.09
2023-05-21T08:18:57.812Z,22.12
2023-05-21T08:24:00.250Z,22.14
2023-05-21T08:29:02.190Z,22.12
2023-05-21T08:34:03.628Z,22.15
2023-05-21T08:39:05.082Z,22.17
2023-05-21T08:44:11.919Z,22.16
2023-05-21T08:49:15.799Z,22.17
2023-05-21T08:54:17.232Z,22.20
2023-05-21T08:59:18.649Z,22.24
2023-05-21T09:04:21.663Z,22.25
2023-05-21T09:09:33.932Z,22.27
2023-05-21T09:14:35.494Z,22.28
2023-05-21T09:19:37.080Z,22.28
2023-05-21T09:24:38.553Z,22.29
2023-05-21T09:29:42.009Z,22.30
2023-05-21T09:34:43.466Z,22.31
2023-05-21T09:39:44.904Z,22.35
2023-05-21T09:44:47.178Z,22.36
2023-05-21T09:49:49.135Z,22.37
2023-05-21T09:54:50.614Z,22.37
2023-05-21T09:59:52.080Z,22.38
2023-05-21T10:04:56.198Z,22.39
2023-05-21T10:09:57.776Z,22.41
2023-05-21T10:15:03.858Z,22.44
2023-05-21T10:20:07.096Z,22.44
2023-05-21T10:25:08.788Z,22.45
2023-05-21T10:30:10.599Z,22.47
2023-05-21T10:35:12.048Z,22.47
2023-05-21T10:40:13.635Z,22.47
2023-05-21T10:45:32.549Z,22.48
2023-05-21T10:50:39.831Z,22.50
2023-05-21T10:55:47.735Z,22.51
2023-05-21T11:00:49.216Z,22.52
2023-05-21T11:05:57.151Z,22.52
2023-05-21T11:10:58.946Z,22.55
2023-05-21T11:16:01.308Z,22.54
2023-05-21T11:21:10.074Z,22.53
2023-05-21T11:26:11.509Z,22.55
2023-05-21T11:31:29.621Z,22.54
2023-05-21T11:36:31.922Z,22.53
2023-05-21T11:41:50.062Z,22.54
2023-05-21T11:46:51.541Z,22.56
2023-05-21T11:51:53.030Z,22.58
2023-05-21T11:56:54.679Z,22.58
2023-05-21T12:01:56.226Z,22.57
2023-05-21T12:07:00.446Z,22.57
2023-05-21T12:12:02.093Z,22.58
2023-05-21T12:17:04.562Z,22.61
2023-05-21T12:22:06.649Z,22.61
2023-05-21T12:27:12.808Z,22.62
2023-05-21T12:32:15.380Z,22.64
2023-05-21T12:37:23.055Z,22.65
2023-05-21T12:42:30.341Z,22.65
2023-05-21T12:47:32.784Z,22.66
2023-05-21T12:52:34.213Z,22.67
2023-05-21T12:57:37.082Z,22.66
2023-05-21T13:02:39.361Z,22.67
2023-05-21T13:07:40.941Z,22.68
2023-05-21T13:12:44.217Z,22.69
2023-05-21T13:17:47.292Z,22.70
2023-05-21T13:22:51.394Z,22.70
2023-05-21T13:27:52.920Z,22.72
2023-05-21T13:32:54.511Z,22.74
2023-05-21T13:37:56.134Z,22.74
2023-05-21T13:42:57.660Z,22.77
2023-05-21T13:47:59.142Z,22.77
2023-05-21T13:53:00.686Z,22.78
2023-05-21T13:58:02.116Z,22.78
2023-05-21T14:03:06.366Z,22.80
2023-05-21T14:08:08.051Z,22.81
2023-05-21T14:13:19.079Z,22.81
2023-05-21T14:18:21.576Z,22.82
2023-05-21T14:23:22.985Z,22.83
2023-05-21T14:28:24.412Z,22.84
2023-05-21T14:33:25.851Z,22.84
2023-05-21T14:38:27.910Z,22.83
2023-05-21T14:43:29.329Z,22.85
2023-05-21T14:48:30.757Z,22.84
2023-05-21T14:53:32.249Z,22.85
2023-05-21T14:58:33.919Z,22.85
2023-05-21T15:03:35.460Z,22.85
2023-05-21T15:08:36.995Z,22.85
2023-05-21T15:13:38.575Z,22.85
2023-05-21T15:18:40.014Z,22.86
2023-05-21T15:23:41.719Z,22.87
2023-05-21T15:28:43.789Z,22.87
2023-05-21T15:33:45.235Z,22.88
2023-05-21T15:38:46.696Z,22.89
2023-05-21T15:43:48.112Z,22.90
2023-05-21T15:48:49.535Z,22.88
2023-05-21T15:53:51.058Z,22.89
2023-05-21T15:58:52.476Z,22.88
2023-05-21T16:03:54.537Z,22.88
2023-05-21T16:08:55.974Z,22.88
2023-05-21T16:13:57.503Z,22.88
2023-05-21T16:18:58.976Z,22.88
2023-05-21T16:24:00.512Z,22.89
2023-05-21T16:29:02.388Z,22.89
2023-05-21T16:34:04.053Z,22.89
2023-05-21T16:39:05.576Z,22.88
2023-05-21T16:44:07.068Z,22.91
2023-05-21T16:49:08.508Z,22.91
2023-05-21T16:54:09.973Z,22.90
2023-05-21T16:59:11.395Z,22.92
2023-05-21T17:04:12.836Z,22.90
2023-05-21T17:09:14.289Z,22.91
2023-05-21T17:14:30.236Z,22.91
2023-05-21T17:19:35.164Z,22.89
2023-05-21T17:24:36.696Z,22.87
2023-05-21T17:29:38.136Z,22.87
2023-05-21T17:34:39.575Z,22.85
2023-05-21T17:39:41.120Z,22.85
2023-05-21T17:44:42.572Z,22.86
2023-05-21T17:49:43.996Z,22.85
2023-05-21T17:54:45.421Z,22.83
2023-05-21T17:59:46.837Z,22.83
2023-05-21T18:04:48.272Z,22.81
2023-05-21T18:09:49.788Z,22.81
2023-05-21T18:14:51.231Z,22.80
2023-05-21T18:19:52.678Z,22.80
2023-05-21T18:24:54.102Z,22.79
2023-05-21T18:29:55.597Z,22.78
2023-05-21T18:34:58.380Z,22.79
2023-05-21T18:39:59.930Z,22.79
2023-05-21T18:45:06.688Z,22.77
2023-05-21T18:50:12.702Z,22.76
2023-05-21T18:55:14.278Z,22.75
2023-05-21T19:00:15.891Z,22.76
2023-05-21T19:05:17.590Z,22.73
2023-05-21T19:10:19.598Z,22.74
2023-05-21T19:15:21.116Z,22.74
2023-05-21T19:20:23.831Z,22.73
2023-05-21T19:25:25.410Z,22.70
2023-05-21T19:30:26.879Z,22.71
2023-05-21T19:35:28.495Z,22.69
2023-05-21T19:40:30.266Z,22.68
2023-05-21T19:45:31.729Z,22.67
2023-05-21T19:50:33.189Z,22.67
2023-05-21T19:55:36.787Z,22.65
2023-05-21T20:00:39.128Z,22.64
2023-05-21T20:05:40.551Z,22.63
2023-05-21T20:10:42.306Z,22.63
2023-05-21T20:15:43.809Z,22.63
2023-05-21T20:20:46.520Z,22.60
2023-05-21T20:25:47.965Z,22.59
2023-05-21T20:30:59.304Z,22.57
2023-05-21T20:36:00.882Z,22.57
2023-05-21T20:41:02.543Z,22.56
2023-05-21T20:46:05.689Z,22.54
2023-05-21T20:51:07.985Z,22.50
2023-05-21T20:56:11.508Z,22.50
2023-05-21T21:01:14.363Z,22.49
2023-05-21T21:06:17.097Z,22.45
2023-05-21T21:11:18.563Z,22.44
2023-05-21T21:16:20.076Z,22.41
2023-05-21T21:21:21.860Z,22.43
2023-05-21T21:26:23.379Z,22.45
2023-05-21T21:31:25.031Z,22.37
2023-05-21T21:36:28.680Z,22.31
2023-05-21T21:41:30.255Z,22.32
2023-05-21T21:46:31.852Z,22.30
2023-05-21T21:51:33.845Z,22.28
2023-05-21T21:56:35.269Z,22.26
2023-05-21T22:01:36.801Z,22.24
2023-05-21T22:06:38.941Z,22.24
2023-05-21T22:11:40.427Z,22.18
2023-05-21T22:16:43.139Z,22.20
2023-05-21T22:21:46.191Z,22.19
2023-05-21T22:26:47.603Z,22.18
2023-05-21T22:31:49.054Z,22.19
2023-05-21T22:36:51.153Z,22.14
2023-05-21T22:41:52.665Z,22.15
2023-05-21T22:46:56.281Z,22.14
2023-05-21T22:52:04.759Z,22.12
2023-05-21T22:57:06.249Z,22.15
2023-05-21T23:02:07.733Z,22.12
2023-05-21T23:07:09.197Z,22.09
2023-05-21T23:12:10.930Z,22.14
2023-05-21T23:17:12.390Z,22.17
2023-05-21T23:22:13.825Z,22.12
2023-05-21T23:27:15.445Z,22.17
2023-05-21T23:32:16.890Z,22.18
2023-05-21T23:37:18.828Z,22.16
2023-05-21T23:42:20.345Z,22.18
2023-05-21T23:47:21.809Z,22.18
2023-05-21T23:52:24.014Z,22.16
2023-05-21T23:57:25.477Z,22.16
